Time;durP1;ratioP1;P1;durP2;ratioP2;P2;SDS_P1;SDS_P2;PMS_P1;PMS_P2;Temp;Humidity;BMP_temperature;BMP_pressure;BME280_temperature;BME280_humidity;BME280_pressure;Samples;Min_cycle;Max_cycle;Signal;HPM_P1;HPM_P2
2022/06/15 00:01:55;;;;;;;6.20;3.05;;;;;;;13.68;100.00;100802.88;5056341;28;20078;-69
2022/06/15 00:04:21;;;;;;;6.22;3.00;;;;;;;13.66;100.00;100806.50;5057904;28;20024;-69
2022/06/15 00:06:46;;;;;;;5.57;2.95;;;;;;;13.19;100.00;100730.84;5075257;28;20029;-70
2022/06/15 00:09:11;;;;;;;8.27;2.97;;;;;;;13.57;100.00;100801.75;5073891;28;20032;-70
2022/06/15 00:11:43;;;;;;;7.57;3.38;;;;;;;13.52;100.00;100798.53;5061104;28;20024;-70
2022/06/15 00:14:26;;;;;;;7.35;3.03;;;;;;;13.32;100.00;100782.00;5073604;28;20120;-70
2022/06/15 00:16:52;;;;;;;5.90;2.38;;;;;;;13.23;100.00;100779.88;5049390;28;20035;-70
2022/06/15 00:19:18;;;;;;;8.35;2.95;;;;;;;13.27;100.00;100789.34;5048701;28;20029;-70
2022/06/15 00:21:44;;;;;;;5.07;2.72;;;;;;;13.14;100.00;100772.47;5045204;28;20028;-69
2022/06/15 00:24:09;;;;;;;4.70;2.45;;;;;;;13.10;100.00;100793.81;5063006;28;20036;-70
2022/06/15 00:26:36;;;;;;;4.07;2.47;;;;;;;12.89;100.00;100769.41;5025429;28;20033;-70
2022/06/15 00:29:01;;;;;;;8.57;2.60;;;;;;;12.95;100.00;100787.53;5057186;28;20028;-70
2022/06/15 00:31:27;;;;;;;5.53;2.75;;;;;;;12.86;100.00;100781.91;5059407;28;20086;-70
2022/06/15 00:33:52;;;;;;;4.57;2.47;;;;;;;12.64;100.00;100775.13;5048406;28;20440;-70
2022/06/15 00:36:19;;;;;;;8.23;2.95;;;;;;;12.63;100.00;100783.13;5044227;28;20021;-70
2022/06/15 00:38:46;;;;;;;6.93;2.60;;;;;;;12.61;100.00;100790.25;5064349;28;20437;-71
2022/06/15 00:41:15;;;;;;;5.40;2.60;;;;;;;12.50;100.00;100782.06;5034898;28;20034;-71
2022/06/15 00:44:10;;;;;;;4.35;2.28;;;;;;;12.26;100.00;100749.94;5071759;28;20035;-69
2022/06/15 00:46:39;;;;;;;6.93;3.05;;;;;;;12.34;100.00;100767.97;5038091;28;20426;-70
2022/06/15 00:49:16;;;;;;;7.88;2.80;;;;;;;12.33;100.00;100777.69;5063189;28;20029;-69
2022/06/15 00:51:42;;;;;;;4.25;2.28;;;;;;;12.23;100.00;100769.38;5054846;28;20757;-70
2022/06/15 00:54:07;;;;;;;5.75;2.97;;;;;;;12.09;100.00;100771.00;5063545;28;20055;-70
2022/06/15 00:56:35;;;;;;;6.35;2.63;;;;;;;12.03;100.00;100781.88;5054825;28;20060;-70
2022/06/15 00:59:08;;;;;;;5.43;3.00;;;;;;;11.98;100.00;100773.31;5069715;28;20033;-70
2022/06/15 01:01:34;;;;;;;6.50;3.20;;;;;;;11.92;100.00;100758.69;5066190;28;20056;-70
2022/06/15 01:04:01;;;;;;;15.13;3.58;;;;;;;12.04;100.00;100773.00;5052027;28;20545;-70
2022/06/15 01:06:56;;;;;;;6.47;3.22;;;;;;;12.07;100.00;100776.34;5056927;28;20033;-70
2022/06/15 01:09:24;;;;;;;6.18;3.30;;;;;;;12.09;100.00;100771.88;5055557;28;20036;-70
2022/06/15 01:12:17;;;;;;;5.85;3.00;;;;;;;12.06;100.00;100766.75;5067538;28;20073;-70
2022/06/15 01:14:43;;;;;;;7.70;3.28;;;;;;;12.09;100.00;100771.88;5053421;28;20056;-70
2022/06/15 01:17:30;;;;;;;4.38;2.55;;;;;;;12.12;100.00;100762.94;5072403;28;20067;-70
2022/06/15 01:20:09;;;;;;;5.45;3.33;;;;;;;12.13;100.00;100773.41;5071379;28;20399;-70
2022/06/15 01:22:53;;;;;;;12.38;3.45;;;;;;;12.16;100.00;100768.00;5035693;28;20140;-69
2022/06/15 01:25:18;;;;;;;9.40;4.35;;;;;;;12.22;100.00;100767.69;5041306;28;20037;-69
2022/06/15 01:28:06;;;;;;;7.38;4.07;;;;;;;12.26;100.00;100763.09;5059012;28;20021;-69
2022/06/15 01:30:34;;;;;;;7.57;3.92;;;;;;;12.27;100.00;100773.56;5056019;28;20466;-69
2022/06/15 01:33:14;;;;;;;5.15;2.75;;;;;;;12.22;100.00;100751.88;5045994;28;20033;-69
2022/06/15 01:35:50;;;;;;;6.15;4.05;;;;;;;12.33;100.00;100766.28;5079637;28;20032;-69
2022/06/15 01:38:33;;;;;;;7.50;3.75;;;;;;;12.36;100.00;100763.47;5057787;28;20506;-70
2022/06/15 01:41:14;;;;;;;7.07;3.60;;;;;;;12.41;100.00;100767.56;5061905;28;20064;-70
2022/06/15 01:43:48;;;;;;;20.08;4.15;;;;;;;12.36;100.00;100758.22;5055860;28;20040;-70
2022/06/15 01:46:14;;;;;;;10.90;3.72;;;;;;;12.13;100.00;100715.44;5062575;28;20024;-69
2022/06/15 01:48:40;;;;;;;7.72;4.00;;;;;;;12.33;100.00;100742.56;5056691;28;20379;-70
2022/06/15 01:51:12;;;;;;;6.75;3.65;;;;;;;12.37;100.00;100757.28;5069475;28;20029;-70
2022/06/15 01:53:45;;;;;;;8.85;4.50;;;;;;;12.37;100.00;100760.75;5059258;28;20051;-70
2022/06/15 01:56:10;;;;;;;4.07;3.22;;;;;;;12.37;100.00;100759.94;5066483;28;20037;-69
2022/06/15 01:58:39;;;;;;;11.68;3.88;;;;;;;12.25;100.00;100740.31;5057063;28;20100;-70
2022/06/15 02:01:12;;;;;;;8.05;3.65;;;;;;;12.33;100.00;100742.56;5049715;28;20523;-70
2022/06/15 02:03:45;;;;;;;5.68;3.65;;;;;;;12.23;100.00;100729.84;5068080;28;20087;-70
2022/06/15 02:06:23;;;;;;;11.98;5.15;;;;;;;12.22;100.00;100730.78;5056505;28;20025;-70
2022/06/15 02:08:55;;;;;;;8.95;4.43;;;;;;;12.25;100.00;100741.19;5051924;28;20036;-69
2022/06/15 02:11:20;;;;;;;8.35;3.78;;;;;;;12.21;100.00;100736.13;5039031;28;20032;-69
2022/06/15 02:13:47;;;;;;;7.20;4.15;;;;;;;12.12;100.00;100734.84;5059201;28;20115;-70
2022/06/15 02:16:37;;;;;;;5.88;3.58;;;;;;;12.11;100.00;100734.91;5065692;28;20105;-70
2022/06/15 02:19:05;;;;;;;9.75;3.97;;;;;;;12.04;100.00;100736.13;5050059;28;20075;-70
2022/06/15 02:21:31;;;;;;;7.97;3.67;;;;;;;12.00;100.00;100726.69;5052009;28;20032;-70
2022/06/15 02:23:58;;;;;;;6.47;3.67;;;;;;;11.92;100.00;100711.28;5053884;28;20032;-69
2022/06/15 02:26:30;;;;;;;7.97;4.60;;;;;;;11.94;100.00;100722.59;5065702;28;20051;-70
2022/06/15 02:29:01;;;;;;;9.05;4.40;;;;;;;11.76;100.00;100698.03;5053352;28;20037;-70
2022/06/15 02:31:27;;;;;;;11.20;4.10;;;;;;;11.82;100.00;100717.09;5053093;28;20039;-69
2022/06/15 02:33:54;;;;;;;9.60;4.85;;;;;;;11.83;100.00;100718.81;5052879;28;20039;-70
2022/06/15 02:36:21;;;;;;;13.60;4.65;;;;;;;11.48;100.00;100663.47;5084857;28;20116;-70
2022/06/15 02:38:49;;;;;;;6.32;4.05;;;;;;;11.85;100.00;100724.84;5051641;28;20025;-70
2022/06/15 02:41:17;;;;;;;6.45;3.80;;;;;;;11.85;100.00;100733.59;5052682;28;20375;-70
2022/06/15 02:43:43;;;;;;;6.80;4.68;;;;;;;11.80;100.00;100727.69;5039024;28;20031;-69
2022/06/15 02:46:09;;;;;;;9.68;4.70;;;;;;;11.64;100.00;100705.66;5052381;28;20021;-69
2022/06/15 02:48:35;;;;;;;8.10;4.13;;;;;;;11.77;100.00;100733.09;5051595;28;20390;-69
2022/06/15 02:51:07;;;;;;;8.40;4.40;;;;;;;11.63;100.00;100710.06;5051519;28;20029;-69
2022/06/15 02:53:34;;;;;;;10.13;4.18;;;;;;;11.69;100.00;100724.72;5051935;28;20032;-69
2022/06/15 02:56:00;;;;;;;7.75;4.70;;;;;;;11.37;100.00;100675.44;5061850;28;20036;-69
2022/06/15 02:58:31;;;;;;;6.68;3.95;;;;;;;11.64;100.00;100721.44;5050462;28;20033;-68
2022/06/15 03:00:58;;;;;;;10.30;5.05;;;;;;;11.58;100.00;100719.13;5039192;28;20032;-69
2022/06/15 03:03:24;;;;;;;5.90;3.85;;;;;;;11.52;100.00;100722.06;5048880;28;20053;-70
2022/06/15 03:05:50;;;;;;;7.90;3.45;;;;;;;11.20;100.00;100685.00;5064959;28;20528;-70
2022/06/15 03:08:17;;;;;;;7.28;4.47;;;;;;;11.27;100.00;100712.72;5052519;28;20078;-69
2022/06/15 03:10:43;;;;;;;12.15;3.80;;;;;;;11.21;100.00;100713.03;5054911;28;20025;-69
2022/06/15 03:13:09;;;;;;;9.73;5.03;;;;;;;11.23;100.00;100724.31;5061213;28;20098;-69
2022/06/15 03:15:34;;;;;;;9.63;4.72;;;;;;;11.13;100.00;100714.28;5067255;28;20352;-70
2022/06/15 03:18:00;;;;;;;7.03;4.43;;;;;;;11.17;100.00;100729.00;5039682;28;20200;-69
2022/06/15 03:20:25;;;;;;;8.57;4.97;;;;;;;11.11;100.00;100721.41;5057458;28;20024;-69
2022/06/15 03:22:51;;;;;;;7.70;4.57;;;;;;;11.16;100.00;100738.69;5042257;28;20083;-69
2022/06/15 03:25:17;;;;;;;9.30;5.13;;;;;;;11.13;100.00;100736.19;5059818;28;20027;-70
2022/06/15 03:27:42;;;;;;;7.20;4.50;;;;;;;10.98;100.00;100721.16;5051651;28;20913;-69
2022/06/15 03:30:09;;;;;;;10.73;4.97;;;;;;;10.74;100.00;100694.22;5041581;28;20025;-70
2022/06/15 03:32:34;;;;;;;17.63;5.55;;;;;;;11.00;100.00;100735.06;5054626;28;20055;-70
2022/06/15 03:35:00;;;;;;;9.90;5.03;;;;;;;11.03;100.00;100734.06;5051688;28;20033;-70
2022/06/15 03:37:25;;;;;;;6.03;4.70;;;;;;;10.85;100.00;100712.09;5056351;28;20452;-70
2022/06/15 03:39:52;;;;;;;5.90;4.38;;;;;;;11.00;100.00;100744.72;5054947;28;20143;-69
2022/06/15 03:42:20;;;;;;;8.43;4.60;;;;;;;10.95;100.00;100734.41;5051928;28;20049;-69
2022/06/15 03:44:46;;;;;;;7.70;4.32;;;;;;;10.96;100.00;100738.75;5044281;28;20017;-69
2022/06/15 03:47:17;;;;;;;7.85;4.97;;;;;;;10.89;100.00;100721.56;5055803;28;20359;-69
2022/06/15 03:49:48;;;;;;;7.60;5.47;;;;;;;10.86;100.00;100711.19;5057605;28;20025;-69
2022/06/15 03:52:14;;;;;;;11.05;4.57;;;;;;;10.92;100.00;100721.41;5065125;28;20526;-69
2022/06/15 03:54:39;;;;;;;11.07;4.38;;;;;;;10.96;100.00;100738.75;5049337;28;20428;-69
2022/06/15 03:57:05;;;;;;;9.55;4.80;;;;;;;10.93;100.00;100731.00;5065304;28;20020;-69
2022/06/15 03:59:31;;;;;;;11.43;4.75;;;;;;;10.91;100.00;100735.50;5070183;28;20052;-69
2022/06/15 04:01:56;;;;;;;8.27;5.03;;;;;;;10.85;100.00;100722.59;5055070;28;20083;-69
2022/06/15 04:04:22;;;;;;;8.20;4.47;;;;;;;10.70;100.00;100704.94;5055551;28;20036;-70
2022/06/15 04:06:49;;;;;;;9.68;5.22;;;;;;;10.86;100.00;100733.97;5055068;28;20028;-70
2022/06/15 04:09:20;;;;;;;6.15;4.65;;;;;;;10.67;100.00;100710.34;5055367;28;20475;-69
2022/06/15 04:11:59;;;;;;;9.38;5.20;;;;;;;10.82;100.00;100730.63;5055698;28;20040;-70
2022/06/15 04:14:32;;;;;;;9.15;5.28;;;;;;;10.85;100.00;100730.50;5069186;28;20443;-71
2022/06/15 04:16:58;;;;;;;15.32;6.03;;;;;;;10.76;100.00;100704.66;5055683;28;20383;-68
2022/06/15 04:19:29;;;;;;;6.88;5.05;;;;;;;11.04;100.00;100747.16;5054476;28;20082;-69
2022/06/15 04:21:55;;;;;;;10.00;5.95;;;;;;;11.13;100.00;100740.59;5037063;28;20044;-69
2022/06/15 04:24:21;;;;;;;13.77;6.50;;;;;;;11.19;100.00;100746.41;5014420;28;20033;-69
2022/06/15 04:26:48;;;;;;;8.07;5.55;;;;;;;11.28;100.00;100735.47;5025080;28;20875;-69
2022/06/15 04:29:14;;;;;;;13.65;6.47;;;;;;;11.40;100.00;100744.53;5037472;28;20039;-69
2022/06/15 04:31:39;;;;;;;14.80;6.03;;;;;;;11.49;100.00;100738.00;5053910;28;20107;-69
2022/06/15 04:34:09;;;;;;;10.02;5.50;;;;;;;11.61;100.00;100738.25;5056150;28;20021;-69
2022/06/15 04:36:36;;;;;;;6.88;5.10;;;;;;;11.45;100.00;100702.25;5050440;28;20027;-70
2022/06/15 04:39:01;;;;;;;8.93;5.40;;;;;;;11.77;100.00;100741.00;5050374;28;20022;-69
2022/06/15 04:41:27;;;;;;;15.65;5.55;;;;;;;11.77;100.00;100726.06;5049567;28;20029;-69
2022/06/15 04:43:52;;;;;;;8.40;6.03;;;;;;;11.88;100.00;100730.81;5071384;28;20075;-70
2022/06/15 04:46:17;;;;;;;7.47;4.95;;;;;;;12.02;100.00;100744.13;5049188;28;20029;-70
2022/06/15 04:48:43;;;;;;;12.00;6.38;;;;;;;12.10;100.00;100747.22;5036344;28;20099;-70
2022/06/15 04:51:17;;;;;;;9.75;6.47;;;;;;;12.17;100.00;100740.69;5056414;28;20027;-69
2022/06/15 04:53:43;;;;;;;;;;;;;;;12.24;100.00;100750.00;5056518;28;20033;-70
2022/06/15 04:56:08;;;;;;;13.50;6.10;;;;;;;12.20;100.00;100732.63;5065564;28;19920;-69
2022/06/15 04:58:34;;;;;;;8.13;5.07;;;;;;;12.37;100.00;100747.56;5055989;28;20403;-69
2022/06/15 05:00:59;;;;;;;10.35;5.53;;;;;;;12.32;100.00;100733.81;5065649;28;20031;-69
2022/06/15 05:03:25;;;;;;;9.23;5.65;;;;;;;12.38;100.00;100730.84;5046797;28;20442;-69
2022/06/15 05:05:57;;;;;;;6.97;5.22;;;;;;;12.40;100.00;100728.13;5057005;28;20021;-69
2022/06/15 05:08:23;;;;;;;7.68;5.10;;;;;;;12.47;100.00;100726.88;5054736;28;20024;-69
2022/06/15 05:10:48;;;;;;;8.55;6.00;;;;;;;12.59;100.00;100739.41;5053901;28;20041;-70
2022/06/15 05:13:14;;;;;;;8.88;5.15;;;;;;;12.75;100.00;100761.38;5064924;28;20390;-69
2022/06/15 05:15:39;;;;;;;7.78;4.95;;;;;;;12.53;100.00;100721.28;5054786;28;20029;-69
2022/06/15 05:18:06;;;;;;;9.00;5.53;;;;;;;12.92;100.00;100765.75;5057057;28;20099;-69
2022/06/15 05:20:35;;;;;;;6.03;4.43;;;;;;;12.98;100.00;100763.63;5049246;28;20036;-70
2022/06/15 05:23:01;;;;;;;10.63;5.75;;;;;;;13.08;100.00;100751.66;5049381;28;20020;-71
2022/06/15 05:25:27;;;;;;;12.48;5.75;;;;;;;13.18;100.00;100766.06;5066458;28;20349;-69
2022/06/15 05:27:52;;;;;;;8.80;5.68;;;;;;;13.21;100.00;100751.88;5067655;28;20051;-69
2022/06/15 05:30:20;;;;;;;14.55;5.38;;;;;;;13.32;100.00;100752.97;5054855;28;20036;-70
2022/06/15 05:32:46;;;;;;;8.30;5.88;;;;;;;13.40;100.00;100755.19;5064370;28;20028;-70
2022/06/15 05:35:12;;;;;;;9.95;6.35;;;;;;;13.40;100.00;100746.41;5067702;28;20036;-70
2022/06/15 05:37:37;;;;;;;12.32;6.10;;;;;;;13.55;100.00;100766.69;5045501;28;20034;-70
2022/06/15 05:40:04;;;;;;;10.38;6.57;;;;;;;13.62;100.00;100768.03;5063081;28;20036;-70
2022/06/15 05:42:29;;;;;;;7.80;5.05;;;;;;;13.64;100.00;100752.94;5040414;28;20733;-69
2022/06/15 05:44:55;;;;;;;13.15;5.97;;;;;;;13.68;100.00;100754.47;5065278;28;20055;-69
2022/06/15 05:47:21;;;;;;;10.30;5.95;;;;;;;13.80;100.00;100764.31;5039517;28;20475;-69
2022/06/15 05:49:46;;;;;;;8.80;4.88;;;;;;;13.72;100.00;100740.16;5064574;28;20064;-70
2022/06/15 05:52:12;;;;;;;13.82;5.80;;;;;;;13.90;100.00;100760.22;5051966;28;20112;-70
2022/06/15 05:54:38;;;;;;;10.80;6.22;;;;;;;13.92;100.00;100745.16;5046598;28;20039;-69
2022/06/15 05:57:24;;;;;;;10.60;4.82;;;;;;;13.99;100.00;100738.53;5051196;28;20520;-70
2022/06/15 05:59:50;;;;;;;10.73;5.85;;;;;;;14.21;100.00;100752.19;5035858;28;20082;-70
2022/06/15 06:02:17;;;;;;;11.27;6.65;;;;;;;14.26;100.00;100760.69;5050738;28;20032;-70
2022/06/15 06:04:43;;;;;;;11.93;5.47;;;;;;;14.30;100.00;100758.72;5050274;28;20155;-69
2022/06/15 06:07:09;;;;;;;8.48;5.72;;;;;;;14.15;100.00;100720.84;5053327;28;20064;-69
2022/06/15 06:09:35;;;;;;;9.20;5.78;;;;;;;14.48;100.00;100770.03;5053255;28;20029;-69
2022/06/15 06:12:00;;;;;;;8.70;5.80;;;;;;;14.54;100.00;100761.72;5052771;28;20035;-70
2022/06/15 06:14:29;;;;;;;12.40;5.80;;;;;;;14.48;100.00;100751.50;5046516;28;20025;-70
2022/06/15 06:16:54;;;;;;;12.82;6.82;;;;;;;14.49;100.00;100742.63;5053391;28;20140;-70
2022/06/15 06:19:19;;;;;;;7.47;4.88;;;;;;;14.61;100.00;100747.16;5050929;28;20112;-70
2022/06/15 06:21:45;;;;;;;11.07;5.80;;;;;;;14.76;100.00;100772.69;5057073;28;20386;-69
2022/06/15 06:24:11;;;;;;;9.30;5.97;;;;;;;14.83;100.00;100768.72;5070160;28;20032;-69
2022/06/15 06:26:36;;;;;;;7.18;5.18;;;;;;;14.89;100.00;100773.63;5052206;28;20108;-70
2022/06/15 06:29:02;;;;;;;12.82;6.43;;;;;;;14.90;100.00;100759.47;5057752;28;20467;-70
2022/06/15 06:31:28;;;;;;;8.45;5.88;;;;;;;14.93;100.00;100759.28;5034808;28;20530;-70
2022/06/15 06:33:54;;;;;;;12.63;5.53;;;;;;;14.98;100.00;100767.75;5055629;28;20028;-70
2022/06/15 06:36:31;;;;;;;7.68;5.43;;;;;;;15.01;100.00;100772.88;5059732;28;20029;-70
2022/06/15 06:38:58;;;;;;;17.90;6.47;;;;;;;15.06;100.00;100778.72;5052092;28;20024;-70
2022/06/15 06:41:25;;;;;;;10.45;6.68;;;;;;;15.00;100.00;100755.31;5062275;28;20425;-69
2022/06/15 06:43:51;;;;;;;9.55;5.57;;;;;;;15.06;100.00;100754.91;5050113;28;20028;-70
2022/06/15 06:46:17;;;;;;;10.45;5.07;;;;;;;15.26;100.00;100767.75;5082268;28;20383;-70
2022/06/15 06:48:42;;;;;;;7.00;4.90;;;;;;;15.36;100.00;100773.28;5050331;28;20032;-70
2022/06/15 06:51:08;;;;;;;12.93;6.70;;;;;;;15.39;100.00;100762.50;5035337;28;20176;-70
2022/06/15 06:53:35;;;;;;;10.18;5.05;;;;;;;15.58;100.00;100768.34;5048431;28;20060;-70
2022/06/15 06:56:03;;;;;;;10.05;6.15;;;;;;;15.69;100.00;100775.59;5036467;28;20029;-69
2022/06/15 06:58:28;;;;;;;9.00;6.07;;;;;;;15.74;100.00;100768.22;5066649;28;20039;-70
2022/06/15 07:00:54;;;;;;;10.02;5.63;;;;;;;15.82;100.00;100785.28;5067539;28;20445;-70
2022/06/15 07:03:20;;;;;;;15.25;6.35;;;;;;;15.63;100.00;100729.16;5046767;28;20052;-69
2022/06/15 07:05:45;;;;;;;12.07;6.22;;;;;;;15.82;100.00;100760.59;5057260;28;20479;-70
2022/06/15 07:08:12;;;;;;;12.30;7.38;;;;;;;15.95;100.00;100765.94;5040552;28;20497;-70
2022/06/15 07:10:38;;;;;;;10.82;7.00;;;;;;;16.06;100.00;100780.16;5052430;28;20024;-69
2022/06/15 07:13:03;;;;;;;10.85;6.75;;;;;;;15.97;100.00;100756.94;5058893;28;20505;-68
2022/06/15 07:15:29;;;;;;;11.55;6.43;;;;;;;16.22;100.00;100780.81;5069645;28;20029;-68
2022/06/15 07:17:58;;;;;;;11.70;7.05;;;;;;;16.22;100.00;100775.53;5069800;28;20029;-68
2022/06/15 07:20:23;;;;;;;17.23;7.93;;;;;;;16.26;100.00;100777.03;5058663;28;20040;-68
2022/06/15 07:22:49;;;;;;;8.52;6.15;;;;;;;16.33;100.00;100778.31;5054100;28;20029;-69
2022/06/15 07:25:14;;;;;;;10.57;5.97;;;;;;;16.49;100.00;100782.59;5053222;28;20166;-70
2022/06/15 07:27:41;;;;;;;11.88;7.07;;;;;;;16.56;100.00;100789.22;5038223;28;20510;-68
2022/06/15 07:30:12;;;;;;;11.05;6.60;;;;;;;16.59;100.00;100783.69;5050420;28;20086;-68
2022/06/15 07:32:39;;;;;;;13.23;7.32;;;;;;;16.64;100.00;100777.09;5050955;28;20155;-68
2022/06/15 07:35:06;;;;;;;9.32;6.40;;;;;;;16.70;100.00;100783.78;5060640;28;20029;-69
2022/06/15 07:37:32;;;;;;;9.65;6.13;;;;;;;16.70;100.00;100760.75;5053058;28;20403;-68
2022/06/15 07:39:57;;;;;;;18.05;6.53;;;;;;;16.92;100.00;100791.97;5056847;28;20028;-68
2022/06/15 07:42:22;;;;;;;10.73;6.75;;;;;;;16.86;100.00;100771.16;5057984;28;20079;-69
2022/06/15 07:44:49;;;;;;;14.48;7.60;;;;;;;16.92;100.00;100776.03;5066944;28;20029;-68
2022/06/15 07:49:59;;;;;;;12.10;6.78;;;;;;;17.11;100.00;100776.41;5050005;28;20051;-69
2022/06/15 07:52:31;;;;;;;9.15;5.68;;;;;;;17.26;100.00;100785.97;5060607;28;20021;-69
2022/06/15 07:54:57;;;;;;;8.40;5.50;;;;;;;17.38;100.00;100785.06;5053524;28;20371;-69
2022/06/15 07:57:23;;;;;;;9.30;6.18;;;;;;;17.49;100.00;100792.25;5050327;28;20037;-69
2022/06/15 07:59:49;;;;;;;8.73;6.38;;;;;;;17.59;100.00;100798.63;5050302;28;20164;-68
2022/06/15 08:02:14;;;;;;;11.98;6.85;;;;;;;17.60;100.00;100791.53;5051268;28;20095;-68
2022/06/15 08:04:40;;;;;;;11.75;7.13;;;;;;;17.70;100.00;100804.03;5051707;28;20471;-68
2022/06/15 08:07:07;;;;;;;19.63;6.30;;;;;;;17.67;100.00;100788.31;5051362;28;20033;-69
2022/06/15 08:09:33;;;;;;;10.57;6.72;;;;;;;17.74;100.00;100799.34;5058232;28;20060;-69
2022/06/15 08:12:19;;;;;;;13.77;6.97;;;;;;;17.45;100.00;100731.47;5069251;28;20071;-69
2022/06/15 08:14:46;;;;;;;10.82;6.07;;;;;;;17.95;100.00;100808.38;5052090;28;20212;-70
2022/06/15 08:17:17;;;;;;;10.13;6.20;;;;;;;18.00;100.00;100798.25;5041579;28;20021;-68
2022/06/15 08:19:45;;;;;;;8.70;6.00;;;;;;;18.11;100.00;100800.13;5056857;28;20033;-68
2022/06/15 08:22:11;;;;;;;15.05;6.45;;;;;;;18.13;100.00;100793.72;5049633;28;20029;-70
2022/06/15 08:24:37;;;;;;;12.63;5.47;;;;;;;18.29;100.00;100810.19;5053422;28;20112;-70
2022/06/15 08:27:03;;;;;;;11.50;6.57;;;;;;;18.16;100.00;100766.88;5068213;28;20116;-68
2022/06/15 08:29:29;;;;;;;10.10;6.72;;;;;;;18.48;100.00;100803.50;5045263;28;20033;-68
2022/06/15 08:31:57;;;;;;;13.60;6.68;;;;;;;18.48;100.00;100800.84;5058129;28;20074;-68
2022/06/15 08:34:27;;;;;;;12.98;6.13;;;;;;;18.56;100.00;100795.78;5044062;28;20051;-69
2022/06/15 08:36:53;;;;;;;14.38;7.03;;;;;;;18.62;100.00;100806.81;5050952;28;20129;-68
2022/06/15 08:39:18;;;;;;;17.50;6.18;;;;;;;18.57;100.00;100787.69;5037738;28;20520;-69
2022/06/15 08:42:00;;;;;;;9.52;6.30;;;;;;;18.71;100.00;100807.94;5050164;28;20032;-69
2022/06/15 08:44:55;;;;;;;17.02;7.00;;;;;;;18.76;100.00;100803.94;5024068;28;20044;-68
2022/06/15 08:47:42;;;;;;;9.80;6.18;;;;;;;18.84;100.00;100806.00;5054817;28;20114;-68
2022/06/15 08:50:42;;;;;;;10.00;6.68;;;;;;;18.94;100.00;100796.31;5034604;28;20040;-68
2022/06/15 08:53:24;;;;;;;28.98;6.72;;;;;;;19.02;100.00;100793.91;5021310;28;20047;-68
2022/06/15 08:56:08;;;;;;;13.15;5.50;;;;;;;19.08;100.00;100781.91;5038779;28;20040;-69
2022/06/15 08:58:49;;;;;;;12.20;5.77;;;;;;;19.26;100.00;100783.94;5034358;28;20055;-69
2022/06/15 09:01:45;;;;;;;11.18;6.53;;;;;;;19.39;100.00;100791.84;5081085;28;20067;-69
2022/06/15 09:04:46;;;;;;;14.82;5.88;;;;;;;19.47;100.00;100791.25;5046741;28;20082;-69
2022/06/15 09:07:39;;;;;;;14.45;5.22;;;;;;;19.58;100.00;100785.88;5054330;28;20027;-70
2022/06/15 09:10:32;;;;;;;10.98;5.38;;;;;;;19.65;100.00;100787.06;5052951;28;20021;-68
2022/06/15 09:13:30;;;;;;;13.18;5.25;;;;;;;19.81;100.00;100784.84;5041007;28;20036;-69
2022/06/15 09:16:15;;;;;;;8.10;5.35;;;;;;;19.93;100.00;100783.00;5035147;28;20037;-69
2022/06/15 09:18:47;;;;;;;8.88;5.30;;;;;;;19.91;100.00;100753.75;5059672;28;20026;-68
2022/06/15 09:21:18;;;;;;;9.73;5.43;;;;;;;20.08;100.00;100768.34;5034025;28;20471;-70
2022/06/15 09:23:51;;;;;;;10.32;5.50;;;;;;;20.25;100.00;100776.66;5037155;28;20029;-70
2022/06/15 09:26:31;;;;;;;8.70;4.30;;;;;;;20.28;100.00;100775.56;5037598;28;20049;-69
2022/06/15 09:29:11;;;;;;;8.65;4.60;;;;;;;20.36;100.00;100779.31;5049165;28;20071;-69
2022/06/15 09:31:44;;;;;;;7.30;3.50;;;;;;;20.48;100.00;100781.91;5039519;28;20029;-69
2022/06/15 09:34:14;;;;;;;11.88;4.45;;;;;;;20.52;100.00;100768.16;5044464;28;20442;-69
2022/06/15 09:36:47;;;;;;;13.55;5.05;;;;;;;20.58;100.00;100778.28;5039592;28;21953;-69
2022/06/15 09:39:13;;;;;;;9.60;4.75;;;;;;;20.67;100.00;100779.34;5060766;28;20068;-68
2022/06/15 09:42:07;;;;;;;15.80;4.70;;;;;;;20.72;100.00;100779.78;5052067;28;20037;-69
2022/06/15 09:44:50;;;;;;;8.27;4.65;;;;;;;20.81;100.00;100781.69;5054525;28;20048;-68
2022/06/15 09:47:33;;;;;;;10.82;5.20;;;;;;;20.65;100.00;100741.25;5044460;28;20114;-69
2022/06/15 09:50:20;;;;;;;9.82;5.20;;;;;;;20.92;100.00;100781.56;5046978;28;20083;-69
2022/06/15 09:52:58;;;;;;;27.17;5.85;;;;;;;20.98;100.00;100785.56;5052409;28;20090;-69
2022/06/15 09:55:30;;;;;;;9.25;4.60;;;;;;;20.98;100.00;100781.06;5048024;28;20132;-68
2022/06/15 09:57:56;;;;;;;10.38;4.72;;;;;;;20.96;100.00;100771.47;5038984;28;20029;-70
2022/06/15 10:00:21;;;;;;;8.82;4.63;;;;;;;21.10;100.00;100779.16;5045329;28;20029;-68
2022/06/15 10:02:52;;;;;;;8.27;4.68;;;;;;;21.10;100.00;100768.47;5043144;28;20020;-70
2022/06/15 10:05:26;;;;;;;14.07;5.68;;;;;;;21.10;100.00;100776.47;5058491;28;20021;-69
2022/06/15 10:07:53;;;;;;;11.35;5.65;;;;;;;21.06;100.00;100778.53;5051106;28;20027;-69
2022/06/15 10:10:22;;;;;;;11.45;5.57;;;;;;;21.20;100.00;100785.38;5052158;28;20482;-70
2022/06/15 10:12:56;;;;;;;11.38;5.15;;;;;;;21.21;100.00;100768.38;5048354;28;20041;-69
2022/06/15 10:15:34;;;;;;;8.68;4.07;;;;;;;21.39;100.00;100775.59;5043630;28;20059;-70
2022/06/15 10:18:13;;;;;;;11.57;4.57;;;;;;;21.59;100.00;100775.66;5059607;28;20021;-70
2022/06/15 10:20:39;;;;;;;12.32;4.78;;;;;;;21.63;100.00;100761.03;5050666;28;20106;-71
2022/06/15 10:23:31;;;;;;;7.22;4.15;;;;;;;21.81;99.19;100775.38;5054441;28;20023;-70
2022/06/15 10:25:57;;;;;;;9.63;4.88;;;;;;;21.89;99.30;100764.84;5060967;28;20033;-70
2022/06/15 10:28:33;;;;;;;10.10;5.57;;;;;;;21.91;95.43;100762.88;5047090;28;20498;-69
2022/06/15 10:31:02;;;;;;;8.52;3.97;;;;;;;22.09;95.68;100779.94;5084085;28;20037;-70
2022/06/15 10:33:38;;;;;;;11.18;5.05;;;;;;;22.12;97.33;100776.97;5045949;28;20028;-70
2022/06/15 10:36:16;;;;;;;12.55;4.20;;;;;;;22.15;97.38;100767.81;5061154;28;20533;-69
2022/06/15 10:38:42;;;;;;;23.55;4.22;;;;;;;22.19;96.61;100754.03;5052561;28;20070;-68
2022/06/15 10:43:52;;;;;;;6.57;3.83;;;;;;;22.40;96.53;100768.09;5050638;28;20207;-70
2022/06/15 10:46:18;;;;;;;8.65;4.63;;;;;;;22.53;91.09;100764.25;5054468;28;20049;-69
2022/06/15 10:48:49;;;;;;;9.38;4.90;;;;;;;22.60;91.14;100773.41;5045424;28;20491;-70
2022/06/15 10:51:37;;;;;;;6.85;4.03;;;;;;;22.74;95.14;100770.28;5055188;28;20025;-70
2022/06/15 10:54:23;;;;;;;9.95;5.03;;;;;;;22.88;93.62;100770.66;5062392;28;20202;-69
2022/06/15 11:02:43;;;;;;;10.60;4.35;;;;;;;23.12;89.23;100770.13;5037590;28;20032;-69
2022/06/15 11:05:09;;;;;;;10.65;4.50;;;;;;;23.30;89.91;100757.63;5067053;28;20095;-70
2022/06/15 11:07:56;;;;;;;14.10;4.68;;;;;;;23.49;96.96;100751.31;5046209;28;20029;-70
2022/06/15 11:10:25;;;;;;;7.05;3.63;;;;;;;23.61;87.00;100744.75;5042015;28;20025;-70
2022/06/15 11:12:57;;;;;;;6.97;4.10;;;;;;;23.63;85.51;100726.66;5038964;28;20029;-70
2022/06/15 11:18:30;;;;;;;13.48;4.05;;;;;;;24.09;83.68;100739.00;5060023;28;20094;-68
2022/06/15 11:20:56;;;;;;;8.45;3.63;;;;;;;24.16;81.40;100734.72;5043176;28;20043;-68
2022/06/15 11:23:30;;;;;;;6.40;3.13;;;;;;;24.27;82.72;100731.78;5047734;28;20033;-69
2022/06/15 11:25:59;;;;;;;6.28;3.78;;;;;;;24.55;83.76;100728.94;5037369;28;20278;-68
2022/06/15 11:28:33;;;;;;;6.05;3.67;;;;;;;24.61;82.01;100721.09;5051496;28;20482;-69
2022/06/15 11:31:05;;;;;;;8.07;4.22;;;;;;;24.80;79.89;100706.56;5037459;28;20033;-69
2022/06/15 11:34:09;;;;;;;9.77;3.88;;;;;;;25.12;81.24;100728.25;5054536;28;20041;-68
2022/06/15 11:36:51;;;;;;;7.87;3.60;;;;;;;25.65;82.12;100729.78;5053906;28;20025;-70
2022/06/15 11:39:25;;;;;;;7.05;3.25;;;;;;;26.09;80.88;100728.44;5056285;28;20025;-68
2022/06/15 11:41:55;;;;;;;9.90;4.65;;;;;;;26.88;80.89;100733.09;5037716;28;20036;-70
2022/06/15 11:44:28;;;;;;;8.32;3.53;;;;;;;28.05;74.91;100725.72;5057303;28;20035;-69